Time;durP1;ratioP1;P1;durP2;ratioP2;P2;SDS_P1;SDS_P2;PMS_P1;PMS_P2;Temp;Humidity;BMP_temperature;BMP_pressure;BME280_temperature;BME280_humidity;BME280_pressure;Samples;Min_cycle;Max_cycle;Signal;HPM_P1;HPM_P2
2022/10/19 00:01:26;;;;;;;12.17;6.70;;;28.50;99.90;;;;;;5072503;28;20231;-69
2022/10/19 00:03:55;;;;;;;9.67;5.63;;;28.00;99.90;;;;;;5072911;28;20180;-69
2022/10/19 00:06:27;;;;;;;11.27;5.97;;;28.20;99.90;;;;;;5082502;28;20187;-69
2022/10/19 00:08:59;;;;;;;10.83;4.53;;;28.60;99.90;;;;;;5092763;28;20174;-67
2022/10/19 00:11:29;;;;;;;5.77;3.97;;;28.30;99.90;;;;;;5074094;28;20229;-67
2022/10/19 00:13:57;;;;;;;10.90;4.47;;;28.40;99.90;;;;;;5074596;28;20266;-65
2022/10/19 00:16:27;;;;;;;10.53;4.97;;;28.20;99.90;;;;;;5079231;28;20214;-68
2022/10/19 00:18:59;;;;;;;8.13;4.20;;;28.10;99.90;;;;;;5080398;28;20175;-69
2022/10/19 00:21:27;;;;;;;8.20;4.40;;;28.60;99.90;;;;;;5075238;28;20257;-67
2022/10/19 00:23:55;;;;;;;5.27;3.83;;;29.10;99.90;;;;;;5072241;28;20561;-68
2022/10/19 00:26:22;;;;;;;11.70;4.53;;;29.50;99.90;;;;;;5083027;28;20183;-68
2022/10/19 00:28:52;;;;;;;10.43;4.60;;;29.90;99.90;;;;;;5074244;28;20183;-69
2022/10/19 00:31:20;;;;;;;7.25;4.47;;;30.20;99.90;;;;;;5092257;28;20199;-68
2022/10/19 00:33:47;;;;;;;9.50;4.60;;;30.00;99.90;;;;;;5092229;28;20233;-67
2022/10/19 00:36:25;;;;;;;9.20;3.77;;;29.80;99.90;;;;;;5076716;28;20221;-68
2022/10/19 00:38:53;;;;;;;9.50;4.60;;;29.70;99.90;;;;;;5072117;28;20168;-69
2022/10/19 00:41:23;;;;;;;10.23;3.90;;;29.60;99.90;;;;;;5071837;28;20688;-69
2022/10/19 00:43:58;;;;;;;7.73;3.30;;;29.40;99.90;;;;;;5071946;28;20180;-69
2022/10/19 00:46:28;;;;;;;5.13;3.23;;;29.30;99.90;;;;;;5087058;28;20565;-68
2022/10/19 00:49:19;;;;;;;9.67;4.33;;;29.80;99.90;;;;;;5092141;28;20217;-69
2022/10/19 00:51:56;;;;;;;7.00;3.20;;;29.60;99.90;;;;;;5091577;28;20270;-69
2022/10/19 00:54:25;;;;;;;6.88;3.15;;;30.00;99.90;;;;;;5078825;28;20210;-71
2022/10/19 00:56:55;;;;;;;2.97;2.05;;;30.70;99.90;;;;;;5090184;28;20297;-69
2022/10/19 00:59:24;;;;;;;3.97;2.13;;;31.30;99.90;;;;;;5072584;28;20176;-70
2022/10/19 01:01:52;;;;;;;5.57;2.40;;;31.50;99.90;;;;;;5071333;28;20215;-69
2022/10/19 01:04:21;;;;;;;5.30;2.03;;;31.40;97.10;;;;;;5079929;28;20266;-69
2022/10/19 01:06:49;;;;;;;5.40;2.00;;;30.20;99.90;;;;;;5071390;28;20637;-71
2022/10/19 01:09:16;;;;;;;5.87;2.10;;;30.40;99.90;;;;;;5076127;28;20230;-70
2022/10/19 01:12:24;;;;;;;2.17;1.73;;;30.80;99.70;;;;;;5074475;28;20167;-70
2022/10/19 01:15:31;;;;;;;2.97;1.70;;;30.90;99.90;;;;;;5088940;28;20922;-70
2022/10/19 01:18:36;;;;;;;5.50;1.83;;;31.10;95.30;;;;;;5048357;28;20279;-70
2022/10/19 01:21:11;;;;;;;5.00;1.50;;;31.10;97.30;;;;;;5072105;28;20179;-69
2022/10/19 01:24:18;;;;;;;2.33;1.53;;;30.80;87.60;;;;;;5080693;28;20186;-70
2022/10/19 01:27:10;;;;;;;2.37;1.30;;;30.40;88.30;;;;;;5090330;28;20704;-69
2022/10/19 01:29:57;;;;;;;2.10;1.30;;;30.30;88.50;;;;;;5095761;28;20228;-69
2022/10/19 01:32:44;;;;;;;2.33;1.50;;;30.60;84.70;;;;;;5078069;28;20186;-71
2022/10/19 01:35:47;;;;;;;3.07;1.40;;;30.40;83.70;;;;;;5077835;28;20183;-71
2022/10/19 01:38:35;;;;;;;3.17;1.80;;;30.50;90.30;;;;;;5060373;28;20195;-69
2022/10/19 01:41:15;;;;;;;3.90;2.10;;;31.00;90.20;;;;;;5078016;28;20172;-69
2022/10/19 01:43:46;;;;;;;2.53;1.60;;;30.90;95.70;;;;;;5096357;28;20543;-72
2022/10/19 01:46:37;;;;;;;7.70;1.70;;;31.00;88.20;;;;;;5097988;28;20176;-71
2022/10/19 01:49:40;;;;;;;3.87;1.80;;;30.30;93.50;;;;;;5098130;28;20788;-71
2022/10/19 01:52:12;;;;;;;5.57;2.03;;;30.00;99.90;;;;;;5066907;28;20717;-70
2022/10/19 01:54:46;;;;;;;2.83;1.90;;;29.90;97.00;;;;;;5078050;28;20241;-69
2022/10/19 01:57:20;;;;;;;4.83;1.90;;;29.90;94.20;;;;;;5077705;28;20219;-69
2022/10/19 01:59:50;;;;;;;6.63;2.10;;;30.10;98.20;;;;;;5077606;28;20645;-70
2022/10/19 02:02:21;;;;;;;4.10;2.00;;;30.30;95.20;;;;;;5081182;28;20209;-71
2022/10/19 02:04:50;;;;;;;7.80;2.23;;;30.60;96.20;;;;;;5091398;28;20176;-70
2022/10/19 02:07:22;;;;;;;3.73;1.90;;;30.40;97.10;;;;;;5077573;28;20172;-70
2022/10/19 02:09:51;;;;;;;6.40;1.80;;;30.10;99.70;;;;;;5077626;28;20211;-70
2022/10/19 02:12:20;;;;;;;3.67;2.17;;;30.10;97.30;;;;;;5077806;28;20234;-70
2022/10/19 02:15:01;;;;;;;4.47;1.90;;;29.50;95.90;;;;;;5059932;28;20199;-68
2022/10/19 02:17:37;;;;;;;3.70;2.43;;;28.90;99.90;;;;;;5077843;28;20211;-68
2022/10/19 02:20:06;;;;;;;6.20;2.50;;;28.60;99.90;;;;;;5077612;28;20541;-68
2022/10/19 02:22:35;;;;;;;4.67;2.30;;;29.00;99.90;;;;;;5077657;28;20194;-69
2022/10/19 02:25:04;;;;;;;3.93;2.50;;;29.00;99.90;;;;;;5084968;28;20258;-70
2022/10/19 02:27:32;;;;;;;4.57;1.93;;;28.50;99.90;;;;;;5089427;28;20645;-68
2022/10/19 02:30:01;;;;;;;9.20;2.67;;;28.20;99.90;;;;;;5077622;28;20694;-71
2022/10/19 02:32:29;;;;;;;4.40;2.13;;;28.20;99.90;;;;;;5077753;28;20180;-69
2022/10/19 02:34:58;;;;;;;5.13;2.23;;;28.60;99.90;;;;;;5093067;28;20190;-70
2022/10/19 02:37:26;;;;;;;4.73;2.43;;;29.10;99.90;;;;;;5082930;28;20742;-71
2022/10/19 02:39:55;;;;;;;3.63;2.30;;;29.70;99.90;;;;;;5074275;28;20237;-71
2022/10/19 02:42:53;;;;;;;4.63;2.57;;;30.40;99.90;;;;;;5074354;28;20180;-70
2022/10/19 02:45:42;;;;;;;8.50;3.70;;;31.00;99.90;;;;;;5066540;28;20200;-70
2022/10/19 02:48:31;;;;;;;7.83;3.47;;;30.50;99.90;;;;;;5074134;28;20188;-69
2022/10/19 02:51:00;;;;;;;8.40;3.20;;;29.80;99.90;;;;;;5073993;28;20172;-71
2022/10/19 02:53:29;;;;;;;4.37;2.80;;;29.50;99.90;;;;;;5082455;28;20227;-71
2022/10/19 02:55:57;;;;;;;6.03;3.03;;;29.50;99.90;;;;;;5073802;28;20219;-72
2022/10/19 02:58:26;;;;;;;9.10;3.17;;;29.30;99.90;;;;;;5074031;28;20175;-73
2022/10/19 03:00:55;;;;;;;4.23;2.87;;;29.60;99.90;;;;;;5073715;28;20231;-72
2022/10/19 03:03:24;;;;;;;4.90;2.80;;;29.60;99.90;;;;;;5082039;28;20187;-73
2022/10/19 03:05:52;;;;;;;6.53;3.20;;;29.30;99.90;;;;;;5093707;28;20180;-74
2022/10/19 03:08:21;;;;;;;7.03;3.03;;;29.20;99.90;;;;;;5094017;28;20276;-73
2022/10/19 03:10:50;;;;;;;7.73;3.60;;;28.90;99.90;;;;;;5093990;28;20536;-72
2022/10/19 03:13:19;;;;;;;8.50;2.50;;;28.60;99.90;;;;;;5093178;28;20217;-73
2022/10/19 03:15:47;;;;;;;6.30;3.03;;;28.60;99.90;;;;;;5093761;28;20576;-72
2022/10/19 03:18:15;;;;;;;5.23;2.80;;;28.40;99.90;;;;;;5085001;28;20222;-73
2022/10/19 03:20:44;;;;;;;3.70;2.77;;;28.50;99.90;;;;;;5092112;28;20181;-72
2022/10/19 03:23:12;;;;;;;10.57;3.00;;;28.50;99.90;;;;;;5093667;28;20262;-73
2022/10/19 03:25:41;;;;;;;3.57;2.40;;;28.20;99.90;;;;;;5093663;28;20171;-73
2022/10/19 03:28:09;;;;;;;6.80;2.77;;;28.10;99.90;;;;;;5091845;28;20656;-72
2022/10/19 03:30:37;;;;;;;6.83;2.83;;;27.90;99.90;;;;;;5090596;28;20263;-72
2022/10/19 03:33:07;;;;;;;10.13;2.10;;;27.50;99.90;;;;;;5092616;28;20179;-72
2022/10/19 03:35:35;;;;;;;4.93;2.10;;;27.50;99.90;;;;;;5075327;28;20192;-73
2022/10/19 03:38:03;;;;;;;10.20;2.00;;;27.50;99.90;;;;;;5080624;28;20194;-71
2022/10/19 03:40:32;;;;;;;6.30;2.27;;;27.20;99.90;;;;;;5073061;28;20514;-72
2022/10/19 03:43:00;;;;;;;4.70;2.20;;;26.80;99.90;;;;;;5072967;28;20658;-72
2022/10/19 03:45:29;;;;;;;4.17;1.80;;;26.50;99.90;;;;;;5072970;28;20263;-72
2022/10/19 03:47:57;;;;;;;4.37;2.13;;;26.30;99.90;;;;;;5091489;28;20187;-71
2022/10/19 03:50:26;;;;;;;5.90;1.90;;;26.20;99.90;;;;;;5093264;28;20167;-72
2022/10/19 03:52:56;;;;;;;4.43;1.40;;;26.20;99.90;;;;;;5092756;28;20672;-72
2022/10/19 03:55:24;;;;;;;7.13;2.03;;;26.20;99.90;;;;;;5093036;28;20167;-73
2022/10/19 03:57:52;;;;;;;8.93;1.63;;;26.20;99.90;;;;;;5091775;28;20198;-73
2022/10/19 04:00:22;;;;;;;5.63;1.30;;;26.10;99.90;;;;;;5092652;28;20711;-73
2022/10/19 04:02:50;;;;;;;5.20;1.50;;;26.10;99.90;;;;;;5083735;28;20721;-72
2022/10/19 04:05:19;;;;;;;10.47;1.67;;;26.00;99.90;;;;;;5084448;28;20210;-72
2022/10/19 04:07:47;;;;;;;4.97;1.57;;;25.70;99.90;;;;;;5091615;28;20265;-73
2022/10/19 04:10:16;;;;;;;4.57;1.47;;;25.70;99.90;;;;;;5092914;28;20183;-70
2022/10/19 04:12:44;;;;;;;4.73;1.53;;;25.70;99.90;;;;;;5074531;28;20537;-72
2022/10/19 04:15:13;;;;;;;4.93;1.57;;;25.80;99.90;;;;;;5092767;28;20189;-72
2022/10/19 04:17:41;;;;;;;7.57;1.70;;;25.80;99.90;;;;;;5089638;28;20279;-73
2022/10/19 04:20:10;;;;;;;4.10;1.30;;;25.60;99.90;;;;;;5093137;28;20194;-72
2022/10/19 04:22:38;;;;;;;5.23;1.73;;;25.40;99.90;;;;;;5065162;28;20552;-71
2022/10/19 04:25:08;;;;;;;6.87;1.80;;;25.50;99.90;;;;;;5075769;28;20265;-69
2022/10/19 04:27:37;;;;;;;10.03;1.97;;;25.40;99.90;;;;;;5093650;28;20640;-70
2022/10/19 04:30:06;;;;;;;6.57;2.00;;;25.20;99.90;;;;;;5075661;28;20257;-71
2022/10/19 04:32:34;;;;;;;8.63;1.83;;;25.20;99.90;;;;;;5093946;28;20697;-76
2022/10/19 04:35:03;;;;;;;6.10;2.13;;;25.20;99.90;;;;;;5093800;28;20618;-71
2022/10/19 04:37:31;;;;;;;5.57;1.67;;;25.10;99.90;;;;;;5093798;28;20218;-70
2022/10/19 04:40:00;;;;;;;5.23;1.40;;;25.10;99.90;;;;;;5093743;28;20175;-74
2022/10/19 04:42:28;;;;;;;3.57;1.47;;;25.20;99.90;;;;;;5093899;28;20203;-69
2022/10/19 04:44:57;;;;;;;5.87;1.67;;;25.30;99.90;;;;;;5093635;28;20176;-71
2022/10/19 04:47:25;;;;;;;6.53;1.30;;;25.40;99.90;;;;;;5093592;28;20187;-70
2022/10/19 04:49:53;;;;;;;6.23;1.70;;;25.40;99.90;;;;;;5093567;28;20203;-72
2022/10/19 04:52:22;;;;;;;8.13;1.53;;;25.40;99.90;;;;;;5094022;28;20198;-70
2022/10/19 04:54:50;;;;;;;5.70;1.60;;;25.30;99.90;;;;;;5093549;28;20178;-74
2022/10/19 04:57:19;;;;;;;6.37;1.63;;;25.20;99.90;;;;;;5092889;28;20328;-71
2022/10/19 04:59:48;;;;;;;9.47;2.20;;;25.00;99.90;;;;;;5093432;28;20167;-75
2022/10/19 05:02:16;;;;;;;4.93;1.40;;;24.80;99.90;;;;;;5093890;28;20211;-73
2022/10/19 05:04:47;;;;;;;7.40;2.07;;;24.50;99.90;;;;;;5093424;28;20258;-73
2022/10/19 05:07:15;;;;;;;5.27;2.20;;;24.30;99.90;;;;;;5075275;28;20178;-70
2022/10/19 05:09:43;;;;;;;4.90;1.30;;;24.30;99.90;;;;;;5093401;28;20254;-75
2022/10/19 05:12:12;;;;;;;4.13;1.33;;;24.30;99.90;;;;;;5093369;28;20199;-75
2022/10/19 05:14:40;;;;;;;7.77;2.23;;;24.10;99.90;;;;;;5093688;28;20203;-70
2022/10/19 05:17:09;;;;;;;6.40;1.90;;;24.00;99.90;;;;;;5093174;28;20214;-73
2022/10/19 05:19:37;;;;;;;8.53;2.20;;;23.80;99.90;;;;;;5093172;28;20217;-71
2022/10/19 05:22:05;;;;;;;3.87;1.80;;;23.80;99.90;;;;;;5093469;28;20177;-72
2022/10/19 05:24:34;;;;;;;6.97;2.27;;;23.70;99.90;;;;;;5093614;28;20174;-71
2022/10/19 05:27:02;;;;;;;5.70;2.00;;;23.60;99.90;;;;;;5093232;28;20270;-69
2022/10/19 05:29:32;;;;;;;10.70;2.60;;;23.60;99.90;;;;;;5092992;28;20175;-70
2022/10/19 05:32:01;;;;;;;6.07;2.07;;;23.50;99.90;;;;;;5093020;28;20197;-72
2022/10/19 05:34:29;;;;;;;12.30;3.13;;;23.50;99.90;;;;;;5093054;28;20265;-74
2022/10/19 05:36:58;;;;;;;8.03;2.43;;;23.40;99.90;;;;;;5093156;28;20239;-73
2022/10/19 05:39:26;;;;;;;6.67;2.43;;;23.40;99.90;;;;;;5092831;28;20553;-74
2022/10/19 05:41:55;;;;;;;8.90;2.70;;;23.30;99.90;;;;;;5075386;28;20213;-70
2022/10/19 05:44:24;;;;;;;8.50;2.47;;;23.30;99.90;;;;;;5093070;28;20175;-74
2022/10/19 05:46:52;;;;;;;15.57;3.07;;;23.20;99.90;;;;;;5092786;28;20175;-73
2022/10/19 05:49:23;;;;;;;4.60;2.50;;;23.20;99.90;;;;;;5093139;28;20178;-72
2022/10/19 05:51:54;;;;;;;9.60;2.87;;;23.10;99.90;;;;;;5075036;28;20202;-71
2022/10/19 05:54:23;;;;;;;4.17;2.40;;;23.10;99.90;;;;;;5093130;28;20173;-71
2022/10/19 05:56:51;;;;;;;9.90;2.73;;;23.10;99.90;;;;;;5092904;28;20210;-71
2022/10/19 05:59:21;;;;;;;9.10;3.30;;;22.90;99.90;;;;;;5092984;28;20182;-71
2022/10/19 06:01:49;;;;;;;5.57;2.23;;;22.90;99.90;;;;;;5092686;28;20226;-71
2022/10/19 06:04:18;;;;;;;8.27;2.37;;;22.90;99.90;;;;;;5092864;28;20174;-70
2022/10/19 06:06:46;;;;;;;6.80;2.93;;;22.90;99.90;;;;;;5074396;28;20182;-70
2022/10/19 06:09:24;;;;;;;5.50;2.90;;;22.90;99.90;;;;;;5095846;28;20205;-72
2022/10/19 06:11:53;;;;;;;9.87;2.70;;;22.80;99.90;;;;;;5096701;28;20633;-72
2022/10/19 06:14:22;;;;;;;5.40;2.57;;;22.80;99.90;;;;;;5096658;28;20174;-73
2022/10/19 06:16:50;;;;;;;7.97;2.80;;;22.80;99.90;;;;;;5096542;28;20667;-73
2022/10/19 06:19:19;;;;;;;9.77;2.43;;;22.80;99.90;;;;;;5096658;28;20181;-73
2022/10/19 06:21:47;;;;;;;11.07;2.53;;;22.90;99.90;;;;;;5078334;28;20585;-70
2022/10/19 06:24:15;;;;;;;4.80;2.57;;;22.90;99.90;;;;;;5096249;28;20262;-70
2022/10/19 06:26:44;;;;;;;8.60;2.67;;;22.90;99.90;;;;;;5096174;28;20535;-73
2022/10/19 06:29:12;;;;;;;6.17;2.27;;;22.70;99.90;;;;;;5096681;28;20171;-70
2022/10/19 06:31:40;;;;;;;4.77;2.00;;;22.80;99.90;;;;;;5096346;28;20175;-71
2022/10/19 06:34:09;;;;;;;10.43;2.13;;;22.80;99.90;;;;;;5096775;28;20602;-74
2022/10/19 06:36:37;;;;;;;4.70;1.80;;;22.80;99.90;;;;;;5095895;28;20218;-70
2022/10/19 06:39:06;;;;;;;7.97;2.40;;;22.80;99.90;;;;;;5096123;28;20229;-71
2022/10/19 06:41:34;;;;;;;6.97;2.30;;;22.90;99.90;;;;;;5095925;28;20651;-72
2022/10/19 06:44:03;;;;;;;14.43;2.60;;;22.80;99.90;;;;;;5096257;28;20259;-73
2022/10/19 06:46:32;;;;;;;6.27;2.27;;;22.80;99.90;;;;;;5095745;28;20173;-71
2022/10/19 06:49:02;;;;;;;5.17;2.00;;;22.80;99.90;;;;;;5096024;28;20181;-75
2022/10/19 06:51:33;;;;;;;8.30;2.30;;;22.80;99.90;;;;;;5077655;28;20269;-73
2022/10/19 06:54:01;;;;;;;8.27;2.17;;;22.70;99.90;;;;;;5095988;28;20179;-71
2022/10/19 06:56:30;;;;;;;6.47;1.83;;;22.70;99.90;;;;;;5096003;28;20207;-70
2022/10/19 06:58:58;;;;;;;8.27;2.57;;;22.60;99.90;;;;;;5095946;28;20171;-71
2022/10/19 07:01:27;;;;;;;10.13;2.63;;;22.50;99.90;;;;;;5095452;28;20272;-74
2022/10/19 07:03:55;;;;;;;12.50;3.07;;;22.40;99.90;;;;;;5095586;28;20206;-70
2022/10/19 07:06:26;;;;;;;8.87;2.50;;;22.30;99.90;;;;;;5095400;28;20175;-71
2022/10/19 07:08:54;;;;;;;7.90;2.37;;;22.30;99.90;;;;;;5095649;28;20531;-73
2022/10/19 07:11:23;;;;;;;7.50;2.23;;;22.30;99.90;;;;;;5095627;28;20258;-74
2022/10/19 07:13:53;;;;;;;9.83;2.23;;;22.20;99.90;;;;;;5077153;28;20183;-71
2022/10/19 07:16:23;;;;;;;9.87;2.27;;;22.10;99.90;;;;;;5095281;28;20264;-70
2022/10/19 07:18:52;;;;;;;9.80;1.90;;;22.10;99.90;;;;;;5095617;28;20186;-72
2022/10/19 07:21:22;;;;;;;11.90;2.50;;;22.00;99.90;;;;;;5094697;28;20193;-71
2022/10/19 07:23:51;;;;;;;16.10;2.33;;;22.00;99.90;;;;;;5095350;28;20182;-71
2022/10/19 07:26:26;;;;;;;11.67;2.57;;;22.00;99.90;;;;;;5095072;28;20191;-73
2022/10/19 07:28:57;;;;;;;7.17;1.97;;;22.00;99.90;;;;;;5095034;28;20220;-74
2022/10/19 07:31:27;;;;;;;11.47;2.60;;;21.90;99.90;;;;;;5095425;28;20692;-70
2022/10/19 07:34:01;;;;;;;18.77;3.33;;;21.80;99.90;;;;;;5094918;28;20183;-75
2022/10/19 07:36:32;;;;;;;10.80;2.60;;;21.70;99.90;;;;;;5077664;28;20224;-74
2022/10/19 07:39:06;;;;;;;11.30;2.93;;;21.60;99.90;;;;;;5095328;28;20186;-74
2022/10/19 07:41:35;;;;;;;7.00;1.70;;;21.50;99.90;;;;;;5095012;28;20186;-72
2022/10/19 07:44:04;;;;;;;12.03;2.30;;;21.40;99.90;;;;;;5094850;28;20175;-71
2022/10/19 07:46:34;;;;;;;11.00;2.57;;;21.30;99.90;;;;;;5094758;28;20183;-70
2022/10/19 07:49:05;;;;;;;11.03;2.30;;;21.20;99.90;;;;;;5094868;28;20525;-70
2022/10/19 07:51:33;;;;;;;5.67;2.23;;;21.20;99.90;;;;;;5094907;28;20493;-70
2022/10/19 07:54:02;;;;;;;14.83;2.53;;;21.10;99.90;;;;;;5094607;28;20263;-71
2022/10/19 07:56:31;;;;;;;6.73;1.90;;;21.10;99.90;;;;;;5094559;28;20214;-71
2022/10/19 07:59:01;;;;;;;5.20;1.90;;;21.10;99.90;;;;;;5094421;28;20520;-71
2022/10/19 08:01:37;;;;;;;10.13;2.17;;;21.00;99.90;;;;;;5094534;28;20222;-73
2022/10/19 08:04:05;;;;;;;15.17;2.40;;;21.00;99.90;;;;;;5095078;28;20589;-72
2022/10/19 08:06:35;;;;;;;13.27;2.57;;;20.90;99.90;;;;;;5094309;28;20226;-72
2022/10/19 08:09:04;;;;;;;18.23;2.90;;;20.90;99.90;;;;;;5094178;28;20182;-71
2022/10/19 08:11:35;;;;;;;13.70;2.97;;;20.80;99.90;;;;;;5094374;28;20176;-70
2022/10/19 08:14:03;;;;;;;14.87;2.93;;;20.80;99.90;;;;;;5094205;28;20622;-75
2022/10/19 08:16:37;;;;;;;11.13;2.70;;;20.80;99.90;;;;;;5094188;28;20583;-74
2022/10/19 08:19:08;;;;;;;16.03;2.80;;;20.70;99.90;;;;;;5094270;28;20211;-72
2022/10/19 08:21:38;;;;;;;8.83;3.00;;;20.70;99.90;;;;;;5095028;28;20209;-72
2022/10/19 08:24:07;;;;;;;9.33;2.50;;;20.70;99.90;;;;;;5094667;28;20171;-71
2022/10/19 08:26:42;;;;;;;12.93;2.80;;;20.70;99.90;;;;;;5094390;28;20178;-71
2022/10/19 08:29:19;;;;;;;11.03;2.63;;;20.60;99.90;;;;;;5076775;28;20277;-72
2022/10/19 08:31:49;;;;;;;7.20;2.07;;;20.60;99.90;;;;;;5093067;28;20184;-71
2022/10/19 08:34:17;;;;;;;13.77;2.50;;;20.40;99.90;;;;;;5075748;28;20178;-72
2022/10/19 08:36:46;;;;;;;12.73;2.57;;;20.40;99.90;;;;;;5093959;28;20203;-74
2022/10/19 08:39:16;;;;;;;13.47;2.37;;;20.40;99.90;;;;;;5093735;28;20207;-71
2022/10/19 08:41:56;;;;;;;9.73;2.33;;;20.30;99.90;;;;;;5094230;28;20647;-72
2022/10/19 08:44:56;;;;;;;12.10;2.20;;;20.20;99.90;;;;;;5093723;28;20178;-71
2022/10/19 08:47:33;;;;;;;8.53;2.27;;;20.30;99.90;;;;;;5093785;28;20260;-75
2022/10/19 08:50:02;;;;;;;13.93;3.20;;;20.30;99.90;;;;;;5093991;28;20655;-71
2022/10/19 08:52:35;;;;;;;16.27;3.23;;;20.20;99.90;;;;;;5093690;28;20171;-71
2022/10/19 08:55:12;;;;;;;13.03;2.87;;;20.30;99.90;;;;;;5093754;28;20174;-74
2022/10/19 08:58:21;;;;;;;16.67;2.90;;;20.20;99.90;;;;;;5093599;28;20210;-75
2022/10/19 09:01:13;;;;;;;9.13;2.07;;;20.10;99.90;;;;;;4991906;28;20306;-73
2022/10/19 09:03:55;;;;;;;10.07;2.77;;;20.10;99.90;;;;;;5062173;28;20195;-76
2022/10/19 09:07:07;;;;;;;12.63;2.83;;;20.10;99.90;;;;;;5093760;28;20169;-71
2022/10/19 09:09:41;;;;;;;18.00;2.90;;;20.10;99.90;;;;;;5093699;28;20563;-73
2022/10/19 09:12:17;;;;;;;13.87;2.10;;;20.00;99.90;;;;;;5093322;28;20174;-71
2022/10/19 09:15:03;;;;;;;9.37;2.50;;;20.00;99.90;;;;;;5093194;28;20175;-74
2022/10/19 09:17:32;;;;;;;13.67;2.60;;;19.90;99.90;;;;;;5093224;28;20271;-73
2022/10/19 09:20:31;;;;;;;11.60;2.73;;;19.90;99.90;;;;;;5093463;28;20167;-70
2022/10/19 09:23:20;;;;;;;14.47;2.83;;;19.90;99.90;;;;;;5086311;28;20201;-72
2022/10/19 09:25:50;;;;;;;13.77;2.80;;;19.90;99.90;;;;;;5093568;28;20750;-70
2022/10/19 09:28:31;;;;;;;16.90;3.47;;;19.90;99.90;;;;;;5075090;28;20184;-69
2022/10/19 09:31:00;;;;;;;8.63;2.43;;;20.00;99.90;;;;;;5093674;28;20573;-71
2022/10/19 09:33:37;;;;;;;13.77;2.77;;;20.00;99.90;;;;;;5093402;28;20255;-70
2022/10/19 09:36:07;;;;;;;13.70;2.50;;;20.00;99.90;;;;;;5093475;28;20230;-73
2022/10/19 09:38:35;;;;;;;11.27;2.63;;;20.10;99.90;;;;;;5093217;28;20182;-72
2022/10/19 09:41:13;;;;;;;11.93;2.23;;;20.10;99.90;;;;;;5075188;28;20172;-72
2022/10/19 09:43:50;;;;;;;9.17;2.10;;;20.20;99.90;;;;;;5094993;28;20183;-73
2022/10/19 09:46:51;;;;;;;11.43;2.30;;;20.20;99.90;;;;;;5097197;28;20179;-71
2022/10/19 09:49:37;;;;;;;10.30;2.37;;;20.20;99.90;;;;;;5097020;28;20260;-73
2022/10/19 09:52:21;;;;;;;15.03;3.07;;;20.30;99.90;;;;;;5097369;28;20227;-71
2022/10/19 09:55:02;;;;;;;6.50;2.23;;;20.30;99.90;;;;;;5097102;28;20627;-73
2022/10/19 09:57:31;;;;;;;12.73;2.50;;;20.30;99.90;;;;;;5077403;28;20222;-72
2022/10/19 09:59:59;;;;;;;10.43;2.53;;;20.30;99.90;;;;;;5096943;28;20217;-71
2022/10/19 10:02:32;;;;;;;11.40;2.40;;;20.30;99.90;;;;;;5097188;28;20211;-74
2022/10/19 10:05:12;;;;;;;12.27;3.40;;;20.30;99.90;;;;;;5078667;28;20514;-72
2022/10/19 10:07:41;;;;;;;13.20;3.40;;;20.30;99.90;;;;;;5096775;28;20175;-72
2022/10/19 10:10:23;;;;;;;11.60;2.93;;;20.20;99.90;;;;;;5097452;28;20173;-70
2022/10/19 10:12:53;;;;;;;13.13;2.57;;;20.20;99.90;;;;;;5078775;28;20189;-73
2022/10/19 10:15:29;;;;;;;12.17;2.80;;;20.20;99.90;;;;;;5096731;28;20174;-72
2022/10/19 10:17:58;;;;;;;8.67;2.57;;;20.20;99.90;;;;;;5096635;28;20213;-73
2022/10/19 10:20:31;;;;;;;15.60;2.60;;;20.20;99.90;;;;;;5096739;28;20167;-74
2022/10/19 10:23:05;;;;;;;13.83;2.67;;;20.20;99.90;;;;;;5096571;28;20185;-74
2022/10/19 10:25:35;;;;;;;9.57;2.73;;;20.20;99.90;;;;;;5096368;28;20179;-75
2022/10/19 10:28:20;;;;;;;12.77;3.00;;;20.20;99.90;;;;;;5097213;28;20528;-74
2022/10/19 10:30:53;;;;;;;16.10;3.20;;;20.10;99.90;;;;;;5096627;28;20637;-72
2022/10/19 10:33:28;;;;;;;13.67;2.50;;;20.10;99.90;;;;;;5096583;28;20168;-74
2022/10/19 10:36:02;;;;;;;16.10;2.70;;;20.10;99.90;;;;;;5096131;28;20177;-72
2022/10/19 10:38:51;;;;;;;15.80;2.77;;;20.00;99.90;;;;;;5096427;28;20167;-75
2022/10/19 10:41:22;;;;;;;16.13;3.20;;;20.00;99.90;;;;;;5078176;28;20180;-69
2022/10/19 10:43:56;;;;;;;12.63;2.90;;;19.90;99.90;;;;;;5096303;28;20205;-73
2022/10/19 10:46:27;;;;;;;12.80;2.93;;;19.80;99.90;;;;;;5096069;28;20657;-73
2022/10/19 10:48:56;;;;;;;16.30;2.93;;;19.80;99.90;;;;;;5096103;28;20168;-72
2022/10/19 10:51:40;;;;;;;9.67;2.63;;;19.70;99.90;;;;;;5077845;28;20180;-69
2022/10/19 10:54:31;;;;;;;12.40;2.77;;;19.60;99.90;;;;;;5095643;28;20209;-72
2022/10/19 10:57:02;;;;;;;15.27;2.97;;;19.60;99.90;;;;;;5095875;28;20666;-74
2022/10/19 11:00:02;;;;;;;15.43;3.53;;;19.70;99.90;;;;;;5077730;28;20267;-72
2022/10/19 11:02:45;;;;;;;12.13;3.03;;;19.80;99.90;;;;;;5095843;28;20187;-74
2022/10/19 11:05:44;;;;;;;8.53;2.37;;;19.70;99.90;;;;;;5096004;28;20345;-75
2022/10/19 11:08:48;;;;;;;12.43;2.90;;;19.60;99.90;;;;;;5089115;28;20234;-75
2022/10/19 11:11:29;;;;;;;9.33;2.20;;;19.50;99.90;;;;;;5095832;28;20177;-73
2022/10/19 11:14:41;;;;;;;13.20;3.00;;;19.50;99.90;;;;;;5095884;28;20179;-73
2022/10/19 11:17:23;;;;;;;12.27;3.10;;;19.40;99.90;;;;;;5049308;28;20292;-73
2022/10/19 11:19:50;;;;;;;9.47;3.07;;;19.40;99.90;;;;;;5095437;28;20203;-72
2022/10/19 11:22:30;;;;;;;10.30;3.90;;;19.30;99.90;;;;;;5096037;28;20179;-73
2022/10/19 11:25:22;;;;;;;14.40;3.37;;;19.40;99.90;;;;;;5095159;28;20191;-72
2022/10/19 11:27:53;;;;;;;9.43;3.10;;;19.40;99.90;;;;;;5095572;28;20180;-73
2022/10/19 11:30:24;;;;;;;12.50;2.60;;;19.50;99.90;;;;;;5095699;28;20177;-74
2022/10/19 11:33:15;;;;;;;12.93;4.13;;;19.40;99.90;;;;;;5095410;28;20188;-71
2022/10/19 11:35:51;;;;;;;10.20;2.47;;;19.50;99.90;;;;;;5095530;28;20179;-74
2022/10/19 11:38:22;;;;;;;13.73;3.00;;;19.50;99.90;;;;;;5095297;28;20177;-73
2022/10/19 11:41:13;;;;;;;7.63;2.43;;;19.40;99.90;;;;;;5095133;28;20637;-72
2022/10/19 11:43:55;;;;;;;11.60;2.73;;;19.40;99.90;;;;;;5095350;28;20178;-73
2022/10/19 11:46:55;;;;;;;15.57;3.13;;;19.40;99.90;;;;;;5094909;28;20175;-73
2022/10/19 11:49:37;;;;;;;14.43;3.13;;;19.40;99.90;;;;;;5095019;28;20547;-74
2022/10/19 11:52:12;;;;;;;15.27;4.10;;;19.40;99.90;;;;;;5094853;28;20203;-70
2022/10/19 11:54:56;;;;;;;12.70;3.07;;;19.40;99.90;;;;;;5095491;28;20203;-70
2022/10/19 11:57:42;;;;;;;11.83;3.40;;;19.40;99.90;;;;;;5094950;28;20207;-72
2022/10/19 12:00:15;;;;;;;11.47;2.60;;;19.40;99.90;;;;;;5094559;28;20313;-69
2022/10/19 12:03:01;;;;;;;9.37;2.67;;;19.40;99.90;;;;;;5075618;28;20211;-73
2022/10/19 12:05:50;;;;;;;11.73;2.57;;;19.40;99.90;;;;;;5094342;28;20270;-72
2022/10/19 12:08:35;;;;;;;11.00;2.83;;;19.40;99.90;;;;;;5094528;28;20182;-70
2022/10/19 12:11:49;;;;;;;10.47;2.77;;;19.40;99.90;;;;;;5094805;28;20674;-71
2022/10/19 12:14:30;;;;;;;16.20;3.40;;;19.30;99.90;;;;;;5094893;28;20518;-69
2022/10/19 12:17:04;;;;;;;9.17;2.77;;;19.30;99.90;;;;;;5094250;28;20210;-73
2022/10/19 12:19:50;;;;;;;12.37;2.80;;;19.30;99.90;;;;;;5094563;28;20167;-73
2022/10/19 12:22:24;;;;;;;11.27;2.90;;;19.30;99.90;;;;;;5094491;28;20525;-72
2022/10/19 12:24:56;;;;;;;12.47;2.73;;;19.20;99.90;;;;;;5094279;28;20181;-74
2022/10/19 12:27:37;;;;;;;14.33;3.23;;;19.20;99.90;;;;;;5075996;28;20179;-72
2022/10/19 12:30:12;;;;;;;7.87;2.67;;;19.20;99.90;;;;;;5094262;28;20186;-73
2022/10/19 12:33:03;;;;;;;12.90;3.43;;;19.20;99.90;;;;;;5093892;28;20168;-69
2022/10/19 12:35:39;;;;;;;15.23;2.80;;;19.20;99.90;;;;;;5093570;28;20254;-69
2022/10/19 12:38:52;;;;;;;13.40;3.10;;;19.20;99.90;;;;;;5091009;28;20199;-70
2022/10/19 12:41:30;;;;;;;12.87;3.00;;;19.20;99.90;;;;;;5061908;28;20194;-70
2022/10/19 12:44:30;;;;;;;8.93;2.30;;;19.20;99.90;;;;;;5092326;28;20184;-70
2022/10/19 12:47:17;;;;;;;12.93;2.93;;;19.20;99.90;;;;;;5092461;28;20262;-69
2022/10/19 12:49:47;;;;;;;18.17;3.43;;;19.20;99.90;;;;;;5075835;28;20268;-69
2022/10/19 12:52:34;;;;;;;17.17;3.87;;;19.20;99.90;;;;;;5088263;28;20199;-69
2022/10/19 12:55:17;;;;;;;11.90;2.90;;;19.10;99.90;;;;;;5073852;28;20196;-69
2022/10/19 12:57:47;;;;;;;10.50;2.93;;;19.10;99.90;;;;;;5081367;28;20204;-70
2022/10/19 13:00:26;;;;;;;11.00;3.00;;;19.10;99.90;;;;;;5083953;28;20301;-69
2022/10/19 13:03:20;;;;;;;13.97;3.10;;;19.10;99.90;;;;;;5078230;28;20191;-69
2022/10/19 13:06:00;;;;;;;9.70;3.00;;;19.20;99.90;;;;;;5089740;28;20183;-70
2022/10/19 13:08:40;;;;;;;10.93;2.63;;;19.10;99.90;;;;;;5088185;28;20176;-70
2022/10/19 13:11:19;;;;;;;13.70;3.27;;;19.10;99.90;;;;;;5092106;28;20188;-69
2022/10/19 13:14:09;;;;;;;13.13;3.10;;;19.10;99.90;;;;;;5078717;28;20191;-69
2022/10/19 13:16:36;;;;;;;15.97;3.00;;;19.10;99.90;;;;;;5071265;28;20242;-69
2022/10/19 13:19:21;;;;;;;14.80;3.00;;;19.10;99.90;;;;;;5089299;28;20187;-69
2022/10/19 13:22:01;;;;;;;11.70;3.23;;;19.10;99.90;;;;;;5091652;28;20202;-69